CSN6 weather

Saint John (Saint John Regional Hospital) Heliport
Saint John, New Brunswick, Canada

Public forecast

Using degrees Celsius for public forecast. Weather courtesy of forecast.io.

Closest aviation weather report (METAR) to Saint John (Saint John Regional Hospital) Heliport

Closest report is Saint John Airport, 8.4 nm (15.5 km) E. Retrieved 2020/07/06 16:00 UTC (1 hour ago):

CYSJ 061600Z 15005KT 110V180 2 1/2SM BR BKN006 OVC011 14/12 A3010 RMK SC6SC2 SLP195

Closest aviation forecast (TAF) to Saint John (Saint John Regional Hospital) Heliport

Closest forecast is Saint John Airport, 8.4 nm (15.5 km) E. Retrieved 2020/07/06 12:39 UTC (5 hours ago):

TAF TAF CYSJ 061138Z 0612/0624 VRB03KT 6SM BR SCT008 BKN015 OVC030 TEMPO 0612/0613 3SM -RA BR BKN008 OVC015 FM061300 22008KT P6SM OVC020 TEMPO 0613/0616 3SM -SHRA BR OVC009 FM061600 18008KT P6SM BKN025 TEMPO 0616/0624 5SM -SHRA BR BKN020 RMK NXT FCST BY 061800Z